Terminal Aerodrome Forecast
Issued by NWS

Home | Current Version | Previous Version | Text Only | Print | Product List | Glossary On
Versions: 1 2 3 4 5 6 7 8 9 10 11 12 13 14 15 16 17 18 19 20
000
FTUS44 KCRP 200500
TAFALI
TAF
KALI 200529Z 2006/2106 02007KT P6SM OVC018
      TEMPO 2009/2013 BKN015
     FM201600 02010KT P6SM BKN020 BKN080
     FM210200 02004KT P6SM SCT030 BKN080=

USA.gov is the U.S. government's official web portal to all federal, state and local government web resources and services.